Time;durP1;ratioP1;P1;durP2;ratioP2;P2;SDS_P1;SDS_P2;PMS_P1;PMS_P2;Temp;Humidity;BMP_temperature;BMP_pressure;BME280_temperature;BME280_humidity;BME280_pressure;Samples;Min_cycle;Max_cycle;Signal;HPM_P1;HPM_P2
2023/09/11 00:00:29;;;;;;;17.15;10.88;;;22.80;99.90;;;;;;5073094;28;20168;-46
2023/09/11 00:02:55;;;;;;;17.13;11.55;;;;;;;;;;5072607;28;20537;-47
2023/09/11 00:05:20;;;;;;;17.30;11.48;;;22.70;99.90;;;;;;5073083;28;20656;-45
2023/09/11 00:07:46;;;;;;;14.77;12.27;;;22.70;99.90;;;;;;5072731;28;20580;-45
2023/09/11 00:10:11;;;;;;;19.58;14.43;;;22.70;99.90;;;;;;5073013;28;20158;-46
2023/09/11 00:12:37;;;;;;;16.75;13.57;;;22.70;99.90;;;;;;5073359;28;20165;-46
2023/09/11 00:15:03;;;;;;;20.17;11.57;;;22.70;99.90;;;;;;5073447;28;20158;-46
2023/09/11 00:17:29;;;;;;;15.73;11.82;;;22.70;99.90;;;;;;5072439;28;20620;-45
2023/09/11 00:19:55;;;;;;;17.15;12.48;;;22.70;99.90;;;;;;5072780;28;20162;-45
2023/09/11 00:22:20;;;;;;;16.08;12.15;;;22.70;99.90;;;;;;5072715;28;20166;-46
2023/09/11 00:24:46;;;;;;;19.40;11.55;;;22.70;99.90;;;;;;5072137;28;20162;-45
2023/09/11 00:27:11;;;;;;;16.15;11.25;;;22.70;99.90;;;;;;5072528;28;20216;-44
2023/09/11 00:29:37;;;;;;;16.73;11.02;;;22.70;99.90;;;;;;5072942;28;20162;-46
2023/09/11 00:32:02;;;;;;;13.02;10.35;;;22.70;99.90;;;;;;5072488;28;20173;-46
2023/09/11 00:34:29;;;;;;;15.27;11.50;;;22.70;99.90;;;;;;5072460;28;20192;-47
2023/09/11 00:36:55;;;;;;;14.45;10.07;;;22.60;99.90;;;;;;5072493;28;20158;-45
2023/09/11 00:39:21;;;;;;;15.00;11.98;;;22.60;99.90;;;;;;5072366;28;20166;-45
2023/09/11 00:41:47;;;;;;;17.15;11.48;;;22.60;99.90;;;;;;5072365;28;20515;-45
2023/09/11 00:44:13;;;;;;;13.82;9.77;;;22.60;99.90;;;;;;5072202;28;20181;-45
2023/09/11 00:46:39;;;;;;;14.73;11.43;;;22.60;99.90;;;;;;5072155;28;20339;-46
2023/09/11 00:49:06;;;;;;;16.90;10.95;;;22.60;99.90;;;;;;5072710;28;20173;-44
2023/09/11 00:51:32;;;;;;;16.50;12.63;;;22.50;99.90;;;;;;5070908;28;20244;-46
2023/09/11 00:53:58;;;;;;;17.98;10.68;;;22.50;99.90;;;;;;5072072;28;20193;-44
2023/09/11 00:56:24;;;;;;;18.92;12.73;;;22.50;99.90;;;;;;5072072;28;20536;-46
2023/09/11 00:58:50;;;;;;;17.35;11.95;;;22.40;99.90;;;;;;5072069;28;20710;-46
2023/09/11 01:01:16;;;;;;;20.48;14.18;;;22.40;99.90;;;;;;5072026;28;20174;-45
2023/09/11 01:03:43;;;;;;;15.63;12.15;;;22.40;99.90;;;;;;5071887;28;20166;-45
2023/09/11 01:06:10;;;;;;;20.52;11.75;;;22.40;99.90;;;;;;5071788;28;20197;-45
2023/09/11 01:08:36;;;;;;;17.30;11.98;;;22.40;99.90;;;;;;5072523;28;20254;-44
2023/09/11 01:11:01;;;;;;;19.70;12.60;;;22.40;99.90;;;;;;5071828;28;20194;-45
2023/09/11 01:13:27;;;;;;;16.75;11.80;;;22.40;99.90;;;;;;5071777;28;20197;-45
2023/09/11 01:16:23;;;;;;;20.23;12.30;;;22.40;99.90;;;;;;5070472;28;20176;-45
2023/09/11 01:19:16;;;;;;;18.88;12.68;;;22.40;99.90;;;;;;5071654;28;20170;-46
2023/09/11 01:22:20;;;;;;;18.30;12.48;;;22.30;99.90;;;;;;5071311;28;20627;-45
2023/09/11 01:25:04;;;;;;;19.27;14.05;;;22.20;99.90;;;;;;5062517;28;20190;-46
2023/09/11 01:28:14;;;;;;;18.77;12.70;;;22.10;99.90;;;;;;5071559;28;20205;-45
2023/09/11 01:30:44;;;;;;;16.45;12.55;;;22.10;99.90;;;;;;5071630;28;20205;-45
2023/09/11 01:33:10;;;;;;;14.38;12.07;;;22.20;99.90;;;;;;5071543;28;20162;-45
2023/09/11 01:35:36;;;;;;;23.67;13.98;;;22.20;99.90;;;;;;5071932;28;20174;-46
2023/09/11 01:38:02;;;;;;;17.42;13.13;;;22.20;99.90;;;;;;5071459;28;20535;-45
2023/09/11 01:40:32;;;;;;;23.08;12.98;;;22.20;99.90;;;;;;5071521;28;20322;-45
2023/09/11 01:43:01;;;;;;;16.98;13.10;;;22.20;99.90;;;;;;5071390;28;20166;-46
2023/09/11 01:45:29;;;;;;;16.30;12.88;;;22.20;99.90;;;;;;5071212;28;20226;-46
2023/09/11 01:47:56;;;;;;;25.20;12.00;;;22.20;99.90;;;;;;5071352;28;20642;-45
2023/09/11 01:50:23;;;;;;;16.83;12.82;;;22.20;99.90;;;;;;5071596;28;20166;-46
2023/09/11 01:52:49;;;;;;;13.43;11.95;;;22.10;99.90;;;;;;5071570;28;20178;-45
2023/09/11 01:55:16;;;;;;;15.13;13.20;;;22.10;99.90;;;;;;5071196;28;20220;-45
2023/09/11 01:57:41;;;;;;;16.05;13.45;;;22.00;99.90;;;;;;5071364;28;20170;-44
2023/09/11 02:00:08;;;;;;;21.58;14.45;;;22.00;99.90;;;;;;5071706;28;20498;-45
2023/09/11 02:02:34;;;;;;;18.02;13.82;;;22.00;99.90;;;;;;5071914;28;20192;-45
2023/09/11 02:05:00;;;;;;;19.55;12.73;;;21.90;99.90;;;;;;5071232;28;20170;-45
2023/09/11 02:07:26;;;;;;;21.05;13.45;;;21.90;99.90;;;;;;5071145;28;20197;-44
2023/09/11 02:09:52;;;;;;;19.88;13.40;;;21.80;99.90;;;;;;5071166;28;20638;-45
2023/09/11 02:12:17;;;;;;;18.35;14.00;;;21.90;99.90;;;;;;5071170;28;20178;-44
2023/09/11 02:14:43;;;;;;;22.75;13.30;;;21.90;99.90;;;;;;5071116;28;20169;-44
2023/09/11 02:17:08;;;;;;;16.23;13.73;;;21.80;99.90;;;;;;5071210;28;20166;-45
2023/09/11 02:19:34;;;;;;;28.65;14.73;;;;;;;;;;5071685;28;20193;-45
2023/09/11 02:22:00;;;;;;;18.50;14.68;;;21.80;99.90;;;;;;5071029;28;20283;-46
2023/09/11 02:24:26;;;;;;;17.85;14.88;;;21.70;99.90;;;;;;5070954;28;20510;-46
2023/09/11 02:26:55;;;;;;;18.10;15.13;;;21.70;99.90;;;;;;5070819;28;20201;-45
2023/09/11 02:29:20;;;;;;;17.98;14.98;;;21.70;99.90;;;;;;5070863;28;20177;-45
2023/09/11 02:31:46;;;;;;;23.42;15.07;;;21.70;99.90;;;;;;5072825;28;20170;-45
2023/09/11 02:34:11;;;;;;;20.67;15.60;;;21.70;99.90;;;;;;5074997;28;20176;-46
2023/09/11 02:36:37;;;;;;;23.17;15.05;;;;;;;;;;5075248;28;20565;-45
2023/09/11 02:39:03;;;;;;;19.92;14.90;;;21.70;99.90;;;;;;5075285;28;20164;-44
2023/09/11 02:41:29;;;;;;;19.95;15.60;;;21.70;99.90;;;;;;5074667;28;20594;-44
2023/09/11 02:43:55;;;;;;;20.88;14.68;;;21.70;99.90;;;;;;5074571;28;20170;-45
2023/09/11 02:46:20;;;;;;;25.02;16.42;;;21.60;99.90;;;;;;5074274;28;20226;-46
2023/09/11 02:48:48;;;;;;;17.77;15.38;;;21.70;99.90;;;;;;5074633;28;20200;-46
2023/09/11 02:51:14;;;;;;;20.27;15.00;;;21.60;99.90;;;;;;5074567;28;20169;-45
2023/09/11 02:53:40;;;;;;;26.45;14.85;;;21.60;99.90;;;;;;5074669;28;20243;-45
2023/09/11 02:56:05;;;;;;;20.90;15.10;;;21.50;99.90;;;;;;5074810;28;20627;-45
2023/09/11 02:58:31;;;;;;;20.92;14.57;;;21.50;99.90;;;;;;5074306;28;20701;-46
2023/09/11 03:01:04;;;;;;;17.77;13.68;;;21.50;99.90;;;;;;5074364;28;20169;-45
2023/09/11 03:03:31;;;;;;;21.23;12.88;;;21.50;99.90;;;;;;5074265;28;20168;-45
2023/09/11 03:06:01;;;;;;;15.20;13.23;;;21.50;99.90;;;;;;5074048;28;20205;-45
2023/09/11 03:08:27;;;;;;;29.20;14.70;;;21.40;99.90;;;;;;5074151;28;20241;-45
2023/09/11 03:10:53;;;;;;;20.27;14.75;;;21.40;99.90;;;;;;5074364;28;20264;-46
2023/09/11 03:13:19;;;;;;;18.70;15.68;;;21.40;99.90;;;;;;5074047;28;20178;-46
2023/09/11 03:15:44;;;;;;;18.75;14.77;;;21.30;99.90;;;;;;5073736;28;20542;-46
2023/09/11 03:18:10;;;;;;;21.52;15.30;;;21.30;99.90;;;;;;5074378;28;20253;-47
2023/09/11 03:20:36;;;;;;;16.95;14.43;;;;;;;;;;5074415;28;20262;-46
2023/09/11 03:23:02;;;;;;;19.23;14.95;;;21.30;99.90;;;;;;5073958;28;20177;-48
2023/09/11 03:25:28;;;;;;;18.08;15.40;;;21.20;99.90;;;;;;5073795;28;20174;-47
2023/09/11 03:27:54;;;;;;;19.23;15.10;;;21.20;99.90;;;;;;5073554;28;20585;-46
2023/09/11 03:30:20;;;;;;;17.80;15.18;;;21.20;99.90;;;;;;5073466;28;20166;-47
2023/09/11 03:32:45;;;;;;;17.52;14.77;;;21.10;99.90;;;;;;5073828;28;20597;-47
2023/09/11 03:35:11;;;;;;;18.98;15.18;;;21.10;99.90;;;;;;5073598;28;20193;-46
2023/09/11 03:37:36;;;;;;;16.08;14.45;;;21.20;99.90;;;;;;5074148;28;20662;-46
2023/09/11 03:40:07;;;;;;;20.67;15.02;;;21.20;99.90;;;;;;5074023;28;20166;-46
2023/09/11 03:42:34;;;;;;;20.17;15.00;;;21.00;99.90;;;;;;5073592;28;20181;-46
2023/09/11 03:45:00;;;;;;;18.13;14.68;;;21.00;99.90;;;;;;5073361;28;20221;-47
2023/09/11 03:47:25;;;;;;;17.67;14.35;;;21.00;99.90;;;;;;5073651;28;20206;-45
2023/09/11 03:49:51;;;;;;;19.90;15.75;;;21.00;99.90;;;;;;5073305;28;20257;-46
2023/09/11 03:52:17;;;;;;;22.70;15.35;;;;;;;;;;5073574;28;20174;-46
2023/09/11 03:54:42;;;;;;;22.05;14.15;;;21.00;99.90;;;;;;5073276;28;20174;-47
2023/09/11 03:57:08;;;;;;;18.42;14.40;;;21.00;99.90;;;;;;5073265;28;20169;-45
2023/09/11 03:59:33;;;;;;;18.98;14.55;;;21.00;99.90;;;;;;5073801;28;20174;-47
2023/09/11 04:01:59;;;;;;;16.15;13.32;;;21.00;99.90;;;;;;5073171;28;20508;-46
2023/09/11 04:04:24;;;;;;;18.42;13.60;;;21.00;99.90;;;;;;5073128;28;20166;-45
2023/09/11 04:06:50;;;;;;;18.83;13.55;;;20.90;99.90;;;;;;5071757;28;20262;-46
2023/09/11 04:09:15;;;;;;;17.70;13.00;;;20.90;99.90;;;;;;5073071;28;20206;-46
2023/09/11 04:11:41;;;;;;;16.55;12.93;;;21.00;99.90;;;;;;5072912;28;20580;-45
2023/09/11 04:14:07;;;;;;;19.38;12.50;;;21.00;99.90;;;;;;5072735;28;20627;-46
2023/09/11 04:16:32;;;;;;;17.30;12.85;;;20.80;99.90;;;;;;5073309;28;20639;-45
2023/09/11 04:18:58;;;;;;;19.70;14.27;;;;;;;;;;5072809;28;20191;-45
2023/09/11 04:21:23;;;;;;;19.15;13.68;;;20.80;99.90;;;;;;5073009;28;20220;-46
2023/09/11 04:23:49;;;;;;;19.70;11.63;;;20.80;99.90;;;;;;5072657;28;20658;-44
2023/09/11 04:26:15;;;;;;;15.70;11.75;;;20.80;99.90;;;;;;5072645;28;20256;-45
2023/09/11 04:28:41;;;;;;;16.13;12.07;;;20.80;99.90;;;;;;5072981;28;20170;-45
2023/09/11 04:31:06;;;;;;;12.02;10.35;;;20.70;99.90;;;;;;5073048;28;20173;-46
2023/09/11 04:33:33;;;;;;;15.52;10.75;;;20.70;99.90;;;;;;5072951;28;20177;-45
2023/09/11 04:35:59;;;;;;;18.40;10.80;;;20.80;99.90;;;;;;5072517;28;20667;-45
2023/09/11 04:38:24;;;;;;;16.63;11.13;;;20.70;99.90;;;;;;5072352;28;20166;-45
2023/09/11 04:40:56;;;;;;;18.25;10.35;;;20.70;99.90;;;;;;5072311;28;20249;-45
2023/09/11 04:43:22;;;;;;;18.55;11.13;;;20.70;99.90;;;;;;5072650;28;20267;-45
2023/09/11 04:45:48;;;;;;;16.52;10.95;;;;;;;;;;5072017;28;20272;-45
2023/09/11 04:48:14;;;;;;;16.55;11.85;;;20.70;99.90;;;;;;5072254;28;20642;-46
2023/09/11 04:50:39;;;;;;;16.90;10.68;;;20.70;99.90;;;;;;5072268;28;20588;-44
2023/09/11 04:53:05;;;;;;;18.60;11.65;;;20.70;99.90;;;;;;5072590;28;20639;-46
2023/09/11 04:55:30;;;;;;;22.05;11.40;;;20.80;99.90;;;;;;5071073;28;20724;-45
2023/09/11 04:57:56;;;;;;;11.82;10.60;;;20.60;99.90;;;;;;5071978;28;21331;-45
2023/09/11 05:00:21;;;;;;;20.45;11.32;;;20.60;99.90;;;;;;5071949;28;20549;-45
2023/09/11 05:02:48;;;;;;;16.02;11.20;;;20.60;99.90;;;;;;5072162;28;20639;-46
2023/09/11 05:05:14;;;;;;;17.90;11.75;;;20.60;99.90;;;;;;5072100;28;20162;-44
2023/09/11 05:07:40;;;;;;;13.65;11.23;;;20.60;99.90;;;;;;5071699;28;20663;-45
2023/09/11 05:10:08;;;;;;;13.75;10.15;;;20.60;99.90;;;;;;5072247;28;20170;-45
2023/09/11 05:12:33;;;;;;;16.27;10.40;;;20.60;99.90;;;;;;5072116;28;20178;-45
2023/09/11 05:14:59;;;;;;;15.30;10.18;;;20.60;99.90;;;;;;5071757;28;20185;-44
2023/09/11 05:17:24;;;;;;;17.88;11.20;;;20.60;99.90;;;;;;5071747;28;20174;-45
2023/09/11 05:19:50;;;;;;;15.85;10.10;;;20.60;99.90;;;;;;5071729;28;20158;-47
2023/09/11 05:22:16;;;;;;;12.90;10.73;;;20.60;99.90;;;;;;5071602;28;20654;-45
2023/09/11 05:24:41;;;;;;;14.30;9.77;;;20.60;99.90;;;;;;5070376;28;20654;-46
2023/09/11 05:27:07;;;;;;;15.60;10.38;;;;;;;;;;5071507;28;20227;-45
2023/09/11 05:29:32;;;;;;;13.70;10.38;;;20.70;99.90;;;;;;5072081;28;20501;-46
2023/09/11 05:31:58;;;;;;;15.48;10.07;;;;;;;;;;5071589;28;20571;-46
2023/09/11 05:34:24;;;;;;;15.70;9.70;;;20.70;99.90;;;;;;5071508;28;20235;-47
2023/09/11 05:36:49;;;;;;;16.23;11.68;;;20.60;99.90;;;;;;5071791;28;20178;-45
2023/09/11 05:39:15;;;;;;;17.08;10.02;;;20.80;99.90;;;;;;5071506;28;20188;-46
2023/09/11 05:41:41;;;;;;;14.90;10.43;;;20.80;99.90;;;;;;5071473;28;20182;-45
2023/09/11 05:44:07;;;;;;;19.63;11.20;;;;;;;;;;5071485;28;20593;-45
2023/09/11 05:46:32;;;;;;;13.57;10.77;;;20.90;99.90;;;;;;5071712;28;20215;-46
2023/09/11 05:48:58;;;;;;;20.83;11.70;;;20.80;99.90;;;;;;5071319;28;20165;-45
2023/09/11 05:51:23;;;;;;;12.85;11.48;;;20.90;99.90;;;;;;5071331;28;20181;-45
2023/09/11 05:53:49;;;;;;;21.65;12.60;;;20.90;99.90;;;;;;5071307;28;20204;-47
2023/09/11 05:56:15;;;;;;;16.80;11.32;;;21.00;99.90;;;;;;5071324;28;20234;-45
2023/09/11 05:58:41;;;;;;;16.63;12.27;;;21.00;99.90;;;;;;5071220;28;20161;-45
2023/09/11 06:01:07;;;;;;;16.38;12.63;;;21.10;99.90;;;;;;5071426;28;20170;-44
2023/09/11 06:03:33;;;;;;;20.20;12.52;;;21.10;99.90;;;;;;5071629;28;20249;-46
2023/09/11 06:06:01;;;;;;;17.90;12.43;;;21.10;99.90;;;;;;5071723;28;20213;-46
2023/09/11 06:08:27;;;;;;;18.85;12.25;;;21.20;99.90;;;;;;5075393;28;20173;-46
2023/09/11 06:10:52;;;;;;;19.48;12.45;;;21.20;99.90;;;;;;5075535;28;20170;-45
2023/09/11 06:13:18;;;;;;;19.30;12.27;;;21.30;99.90;;;;;;5075216;28;20158;-45
2023/09/11 06:15:44;;;;;;;19.40;12.40;;;21.30;99.90;;;;;;5075451;28;20505;-45
2023/09/11 06:18:09;;;;;;;19.17;11.90;;;21.40;99.90;;;;;;5075407;28;20257;-46
2023/09/11 06:20:35;;;;;;;21.10;12.60;;;21.50;99.90;;;;;;5075647;28;20645;-45
2023/09/11 06:23:01;;;;;;;19.80;11.80;;;21.60;99.90;;;;;;5075568;28;20166;-45
2023/09/11 06:25:27;;;;;;;18.30;12.45;;;21.70;99.90;;;;;;5074909;28;20166;-45
2023/09/11 06:27:52;;;;;;;17.48;11.80;;;21.80;99.90;;;;;;5074902;28;20202;-46
2023/09/11 06:30:18;;;;;;;23.23;11.80;;;21.80;99.90;;;;;;5075222;28;20174;-46
2023/09/11 06:32:43;;;;;;;17.83;11.00;;;21.90;99.90;;;;;;5074911;28;20698;-46
2023/09/11 06:35:12;;;;;;;16.17;11.38;;;21.90;99.90;;;;;;5075146;28;20181;-46
2023/09/11 06:37:38;;;;;;;19.63;11.25;;;22.00;99.90;;;;;;5075054;28;20525;-46
2023/09/11 06:40:07;;;;;;;25.73;11.70;;;22.10;99.90;;;;;;5075124;28;20215;-46
2023/09/11 06:42:34;;;;;;;23.90;11.57;;;22.20;99.90;;;;;;5074995;28;20631;-47
2023/09/11 06:44:59;;;;;;;16.65;10.88;;;22.30;99.90;;;;;;5074637;28;20567;-47
2023/09/11 06:47:25;;;;;;;14.90;10.65;;;22.40;99.90;;;;;;5074436;28;20205;-48
2023/09/11 06:49:51;;;;;;;23.70;11.57;;;22.50;99.90;;;;;;5074482;28;20241;-48
2023/09/11 06:52:17;;;;;;;18.48;10.70;;;22.60;99.90;;;;;;5074659;28;20185;-47
2023/09/11 06:54:42;;;;;;;16.92;11.00;;;22.70;99.90;;;;;;5074690;28;20169;-48
2023/09/11 06:57:08;;;;;;;18.95;11.10;;;22.80;99.90;;;;;;5074396;28;20166;-48
2023/09/11 06:59:34;;;;;;;18.05;10.85;;;22.80;99.90;;;;;;5074929;28;20241;-47
2023/09/11 07:01:59;;;;;;;15.48;11.30;;;22.90;99.90;;;;;;5074254;28;20647;-46
2023/09/11 07:04:25;;;;;;;20.83;11.30;;;;;;;;;;5074201;28;20173;-47
2023/09/11 07:06:51;;;;;;;18.02;10.70;;;23.00;99.90;;;;;;5074095;28;20212;-47
2023/09/11 07:09:17;;;;;;;16.67;10.90;;;23.20;99.90;;;;;;5074443;28;20172;-46
2023/09/11 07:11:42;;;;;;;20.58;11.10;;;23.20;99.90;;;;;;5074126;28;20196;-46
2023/09/11 07:14:12;;;;;;;19.35;11.43;;;23.40;99.90;;;;;;5074076;28;20169;-47
2023/09/11 07:16:38;;;;;;;17.27;11.07;;;23.40;99.90;;;;;;5074211;28;20177;-46
2023/09/11 07:19:04;;;;;;;18.65;10.30;;;23.50;99.90;;;;;;5073285;28;20523;-46
2023/09/11 07:21:29;;;;;;;15.85;10.88;;;23.60;99.90;;;;;;5073955;28;20162;-46
2023/09/11 07:23:55;;;;;;;20.15;11.27;;;23.60;99.90;;;;;;5073838;28;20166;-46
2023/09/11 07:26:20;;;;;;;18.75;10.85;;;23.60;99.90;;;;;;5073726;28;20210;-46
2023/09/11 07:29:04;;;;;;;17.77;10.40;;;23.70;99.90;;;;;;5073766;28;20173;-47
2023/09/11 07:31:31;;;;;;;19.45;11.07;;;23.70;99.90;;;;;;5073848;28;20510;-46
2023/09/11 07:33:56;;;;;;;14.20;10.63;;;23.70;99.90;;;;;;5072821;28;20174;-46
2023/09/11 07:36:22;;;;;;;20.25;11.40;;;23.80;99.90;;;;;;5073732;28;20174;-47
2023/09/11 07:38:48;;;;;;;18.33;11.63;;;23.90;99.90;;;;;;5073638;28;20175;-46
2023/09/11 07:41:15;;;;;;;20.88;11.40;;;24.10;99.90;;;;;;5073707;28;20183;-47
2023/09/11 07:43:42;;;;;;;19.85;11.68;;;24.20;99.90;;;;;;5073600;28;20154;-46
2023/09/11 07:46:08;;;;;;;21.13;12.07;;;24.20;99.90;;;;;;5073270;28;20253;-48
2023/09/11 07:48:35;;;;;;;18.15;9.82;;;24.20;99.90;;;;;;5073878;28;20208;-47
2023/09/11 07:51:00;;;;;;;17.35;10.88;;;24.30;99.90;;;;;;5073240;28;20651;-46
2023/09/11 07:53:26;;;;;;;16.25;12.00;;;24.40;99.90;;;;;;5073339;28;20184;-47
2023/09/11 07:55:51;;;;;;;17.67;11.43;;;24.50;99.90;;;;;;5073340;28;20597;-48
2023/09/11 07:58:17;;;;;;;17.90;11.50;;;24.50;99.90;;;;;;5073314;28;20170;-48
2023/09/11 08:00:42;;;;;;;21.42;11.50;;;24.60;99.90;;;;;;5073196;28;20527;-46
2023/09/11 08:03:08;;;;;;;16.67;11.98;;;24.70;99.90;;;;;;5073092;28;20170;-46
2023/09/11 08:05:34;;;;;;;15.43;10.55;;;24.90;99.90;;;;;;5073520;28;20174;-46
2023/09/11 08:08:02;;;;;;;16.02;11.18;;;25.00;99.90;;;;;;5073100;28;20161;-46
2023/09/11 08:10:28;;;;;;;24.13;11.20;;;25.10;99.90;;;;;;5073321;28;20170;-46
2023/09/11 08:12:54;;;;;;;16.80;11.18;;;25.20;99.90;;;;;;5073041;28;20267;-47
2023/09/11 08:15:20;;;;;;;21.17;10.70;;;25.30;99.90;;;;;;5073034;28;20649;-46
2023/09/11 08:17:45;;;;;;;24.45;10.00;;;25.20;99.90;;;;;;5072925;28;20172;-46
2023/09/11 08:20:11;;;;;;;19.95;9.88;;;25.40;99.90;;;;;;5073115;28;20185;-46
2023/09/11 08:22:37;;;;;;;19.95;10.00;;;25.50;99.90;;;;;;5072798;28;20185;-46
2023/09/11 08:25:03;;;;;;;19.17;9.25;;;25.60;99.90;;;;;;5073160;28;20245;-46
2023/09/11 08:27:28;;;;;;;21.85;10.07;;;25.60;99.90;;;;;;5072615;28;20290;-45
2023/09/11 08:29:55;;;;;;;11.73;9.38;;;25.60;99.90;;;;;;5072336;28;20193;-46
2023/09/11 08:32:21;;;;;;;27.73;10.38;;;25.80;99.90;;;;;;5072480;28;20639;-46
2023/09/11 08:34:47;;;;;;;17.17;9.55;;;25.90;99.90;;;;;;5072568;28;20515;-46
2023/09/11 08:37:12;;;;;;;15.90;10.05;;;26.00;99.90;;;;;;5072479;28;20173;-48
2023/09/11 08:39:38;;;;;;;21.08;9.80;;;26.10;99.90;;;;;;5072587;28;20165;-45
2023/09/11 08:42:04;;;;;;;23.13;10.20;;;26.10;99.90;;;;;;5073149;28;20169;-46
2023/09/11 08:44:30;;;;;;;20.70;9.77;;;26.30;99.90;;;;;;5072122;28;20221;-46
2023/09/11 08:46:59;;;;;;;18.88;8.23;;;26.40;99.90;;;;;;5071865;28;20626;-47
2023/09/11 08:49:28;;;;;;;14.88;9.05;;;26.50;99.90;;;;;;5072193;28;20622;-46
2023/09/11 08:51:54;;;;;;;16.35;9.48;;;26.60;99.90;;;;;;5072216;28;20169;-46
2023/09/11 08:54:26;;;;;;;18.88;9.80;;;26.70;99.90;;;;;;5071710;28;20841;-46
2023/09/11 08:56:54;;;;;;;16.00;8.55;;;26.80;99.90;;;;;;5072168;28;20173;-46
2023/09/11 08:59:21;;;;;;;17.48;8.95;;;27.00;99.90;;;;;;5072040;28;20166;-46
2023/09/11 09:01:48;;;;;;;19.83;11.05;;;26.90;99.90;;;;;;5071736;28;20166;-45
2023/09/11 09:04:16;;;;;;;25.92;10.15;;;27.10;99.90;;;;;;5071920;28;20192;-45
2023/09/11 09:06:45;;;;;;;24.58;9.57;;;27.10;99.90;;;;;;5071823;28;20209;-46
2023/09/11 09:09:11;;;;;;;18.33;8.60;;;;;;;;;;5071878;28;20165;-45
2023/09/11 09:11:38;;;;;;;25.10;9.35;;;27.30;99.90;;;;;;5071407;28;20165;-46
2023/09/11 09:14:07;;;;;;;17.70;10.23;;;27.50;99.90;;;;;;5072470;28;20189;-46
2023/09/11 09:16:32;;;;;;;13.07;8.30;;;27.70;99.90;;;;;;5072468;28;20226;-46
2023/09/11 09:18:58;;;;;;;23.52;9.07;;;27.70;99.90;;;;;;5070426;28;20165;-46
2023/09/11 09:21:25;;;;;;;20.23;8.18;;;27.80;99.90;;;;;;5071750;28;20174;-46
2023/09/11 09:23:52;;;;;;;18.40;9.02;;;27.80;99.90;;;;;;5071951;28;20165;-46
2023/09/11 09:26:18;;;;;;;19.00;8.77;;;27.80;99.90;;;;;;5071505;28;20281;-46
2023/09/11 09:28:47;;;;;;;17.23;7.95;;;27.90;99.90;;;;;;5071893;28;20264;-45
2023/09/11 09:31:25;;;;;;;20.52;7.13;;;27.80;99.90;;;;;;5069925;28;20166;-45
2023/09/11 09:33:55;;;;;;;11.70;6.68;;;28.10;99.90;;;;;;5071813;28;20181;-46
2023/09/11 09:36:22;;;;;;;22.90;7.22;;;28.10;99.90;;;;;;5071451;28;20162;-47
2023/09/11 09:38:47;;;;;;;22.80;7.05;;;28.20;99.90;;;;;;5071503;28;20169;-47
2023/09/11 09:41:14;;;;;;;10.88;6.30;;;28.10;99.90;;;;;;5070875;28;20173;-46
2023/09/11 09:43:39;;;;;;;13.48;7.03;;;28.20;99.90;;;;;;5071629;28;20170;-48
2023/09/11 09:46:17;;;;;;;14.80;7.78;;;28.20;99.90;;;;;;5071612;28;20732;-47
2023/09/11 09:48:43;;;;;;;19.08;6.68;;;28.40;99.90;;;;;;5071459;28;20176;-49
2023/09/11 09:51:09;;;;;;;16.42;5.80;;;28.40;99.90;;;;;;5071615;28;20170;-48
2023/09/11 09:53:41;;;;;;;21.65;7.32;;;28.50;99.90;;;;;;5071485;28;20700;-46
2023/09/11 09:56:08;;;;;;;12.95;6.57;;;28.40;99.90;;;;;;5071509;28;20274;-48
2023/09/11 09:58:39;;;;;;;16.45;7.28;;;28.50;99.90;;;;;;5071997;28;20161;-48
2023/09/11 10:01:07;;;;;;;20.77;6.35;;;28.60;99.90;;;;;;5071651;28;20166;-48
2023/09/11 10:03:47;;;;;;;22.83;6.68;;;28.80;99.90;;;;;;5071678;28;20630;-49
2023/09/11 10:06:31;;;;;;;19.27;7.05;;;29.00;99.90;;;;;;5071435;28;20208;-48
2023/09/11 10:09:12;;;;;;;20.00;6.32;;;29.00;99.90;;;;;;5071235;28;20250;-48
2023/09/11 10:11:40;;;;;;;19.27;6.43;;;29.10;99.90;;;;;;5071114;28;20693;-48
2023/09/11 10:14:07;;;;;;;24.50;7.22;;;29.10;99.90;;;;;;5071028;28;20630;-46
2023/09/11 10:16:33;;;;;;;14.55;5.65;;;29.30;99.90;;;;;;5071626;28;20180;-48
2023/09/11 10:19:01;;;;;;;9.75;5.53;;;29.30;99.90;;;;;;5070996;28;20558;-48
2023/09/11 10:21:27;;;;;;;14.13;5.53;;;29.40;99.90;;;;;;5070808;28;20162;-48
2023/09/11 10:23:53;;;;;;;15.85;6.30;;;29.40;99.90;;;;;;5070943;28;20239;-46
2023/09/11 10:26:44;;;;;;;12.23;5.32;;;29.40;99.90;;;;;;5070908;28;20201;-46
2023/09/11 10:29:14;;;;;;;16.73;6.35;;;29.60;99.90;;;;;;5070985;28;20184;-46
2023/09/11 10:31:49;;;;;;;18.08;6.03;;;29.70;99.90;;;;;;5071268;28;20554;-46
2023/09/11 10:34:15;;;;;;;18.25;6.20;;;29.60;99.90;;;;;;5070932;28;20253;-46
2023/09/11 10:36:58;;;;;;;12.48;5.47;;;29.50;99.90;;;;;;5070854;28;20248;-46
2023/09/11 10:39:26;;;;;;;15.30;6.20;;;29.50;99.90;;;;;;5071153;28;20253;-47
2023/09/11 10:41:52;;;;;;;17.25;6.22;;;29.50;99.90;;;;;;5071120;28;20173;-47
2023/09/11 10:44:21;;;;;;;10.43;5.82;;;29.70;99.90;;;;;;5070788;28;20170;-45
2023/09/11 10:46:53;;;;;;;18.88;6.05;;;29.60;99.90;;;;;;5070798;28;20201;-47
2023/09/11 10:49:22;;;;;;;12.20;6.13;;;29.60;99.90;;;;;;5070864;28;20650;-47
2023/09/11 10:51:52;;;;;;;14.70;6.05;;;;;;;;;;5069579;28;20173;-45
2023/09/11 10:54:22;;;;;;;13.35;5.80;;;29.70;99.90;;;;;;5072199;28;20529;-47
2023/09/11 10:56:52;;;;;;;18.10;5.78;;;29.90;99.90;;;;;;5074315;28;20162;-47
2023/09/11 10:59:17;;;;;;;16.48;6.35;;;29.80;99.90;;;;;;5074137;28;20534;-47
2023/09/11 11:01:47;;;;;;;19.00;6.07;;;29.90;99.90;;;;;;5073825;28;20623;-48
2023/09/11 11:04:15;;;;;;;15.80;6.65;;;29.80;99.90;;;;;;5072831;28;20166;-47
2023/09/11 11:06:49;;;;;;;15.73;6.32;;;29.90;99.90;;;;;;5072789;28;20216;-47
2023/09/11 11:09:33;;;;;;;17.52;5.93;;;30.10;99.90;;;;;;5073747;28;20161;-48
2023/09/11 11:12:06;;;;;;;12.77;6.47;;;30.10;99.90;;;;;;5074177;28;20535;-48
2023/09/11 11:14:32;;;;;;;10.40;6.13;;;30.20;99.90;;;;;;5074590;28;20169;-47
2023/09/11 11:17:07;;;;;;;17.70;6.38;;;30.30;99.90;;;;;;5072929;28;20538;-46
2023/09/11 11:19:37;;;;;;;19.90;6.38;;;30.20;99.90;;;;;;5074062;28;20173;-48
2023/09/11 11:22:07;;;;;;;14.70;6.45;;;30.30;99.90;;;;;;5074109;28;20249;-48
2023/09/11 11:24:54;;;;;;;16.13;5.95;;;30.50;99.90;;;;;;5071892;28;20174;-46
2023/09/11 11:27:20;;;;;;;15.30;6.72;;;30.70;99.90;;;;;;5073624;28;20204;-46
2023/09/11 11:29:47;;;;;;;15.63;6.60;;;30.90;99.90;;;;;;5073611;28;20222;-48
2023/09/11 11:32:13;;;;;;;11.15;6.28;;;30.80;99.90;;;;;;5073487;28;20168;-47
2023/09/11 11:34:43;;;;;;;12.85;6.18;;;30.90;99.90;;;;;;5073479;28;20165;-47
2023/09/11 11:37:10;;;;;;;9.77;5.95;;;30.80;99.90;;;;;;5072277;28;20174;-47
2023/09/11 11:39:39;;;;;;;10.68;6.10;;;30.90;99.90;;;;;;5072966;28;20162;-46
2023/09/11 11:42:07;;;;;;;12.65;5.15;;;30.70;99.90;;;;;;5073651;28;20177;-47
2023/09/11 11:44:34;;;;;;;10.43;5.63;;;30.70;99.90;;;;;;5073315;28;20209;-46
2023/09/11 11:47:00;;;;;;;13.77;5.72;;;30.80;99.90;;;;;;5073248;28;20230;-46
2023/09/11 11:49:26;;;;;;;8.82;5.30;;;30.80;99.90;;;;;;5073229;28;20503;-46
2023/09/11 11:51:52;;;;;;;13.80;5.72;;;30.90;99.90;;;;;;5072904;28;20173;-46
2023/09/11 11:54:22;;;;;;;10.90;5.60;;;30.90;99.90;;;;;;5073359;28;20659;-46
2023/09/11 11:56:57;;;;;;;10.10;5.40;;;30.80;99.90;;;;;;5072806;28;20169;-47
2023/09/11 11:59:28;;;;;;;13.38;5.45;;;30.90;99.90;;;;;;5072862;28;20165;-46
2023/09/11 12:01:53;;;;;;;10.70;5.57;;;30.80;99.90;;;;;;5073322;28;20529;-47
2023/09/11 12:04:20;;;;;;;8.70;5.70;;;31.00;99.90;;;;;;5072317;28;20176;-46
2023/09/11 12:06:46;;;;;;;14.77;6.00;;;31.20;99.90;;;;;;5072851;28;20213;-46
2023/09/11 12:09:18;;;;;;;16.98;6.45;;;31.20;99.90;;;;;;5072827;28;20168;-46
2023/09/11 12:11:45;;;;;;;8.90;5.35;;;31.20;99.90;;;;;;5072068;28;20256;-45
2023/09/11 12:14:15;;;;;;;9.07;5.82;;;31.20;99.90;;;;;;5073119;28;20173;-47
2023/09/11 12:16:41;;;;;;;10.15;5.90;;;31.10;99.90;;;;;;5072231;28;20176;-47
2023/09/11 12:19:07;;;;;;;11.93;5.70;;;31.10;99.90;;;;;;5072709;28;20528;-47
2023/09/11 12:21:33;;;;;;;11.18;5.85;;;31.10;99.90;;;;;;5072736;28;20169;-46
2023/09/11 12:23:59;;;;;;;8.77;5.47;;;31.10;99.90;;;;;;5072362;28;20321;-47
2023/09/11 12:26:26;;;;;;;8.93;5.57;;;31.10;99.90;;;;;;5072194;28;20292;-44
2023/09/11 12:28:53;;;;;;;10.55;5.47;;;31.10;99.90;;;;;;5072489;28;20166;-46
2023/09/11 12:31:19;;;;;;;8.10;4.72;;;31.10;99.90;;;;;;5072226;28;20173;-44
2023/09/11 12:33:52;;;;;;;9.48;5.25;;;31.20;99.90;;;;;;5071790;28;20161;-44
2023/09/11 12:36:21;;;;;;;9.95;5.82;;;31.30;99.90;;;;;;5072805;28;20172;-46